Time;durP1;ratioP1;P1;durP2;ratioP2;P2;SDS_P1;SDS_P2;PMS_P1;PMS_P2;Temp;Humidity;BMP_temperature;BMP_pressure;BME280_temperature;BME280_humidity;BME280_pressure;Samples;Min_cycle;Max_cycle;Signal;HPM_P1;HPM_P2
2022/07/17 00:01:21;;;;;;;4.65;1.77;;;;;;;17.81;44.65;102633.91;4985272;28;124056;-63
2022/07/17 00:03:48;;;;;;;6.57;1.80;;;;;;;17.77;44.69;102637.69;4989196;28;124748;-63
2022/07/17 00:06:16;;;;;;;3.80;1.75;;;;;;;17.71;44.82;102639.69;4955787;28;115231;-63
2022/07/17 00:08:43;;;;;;;5.90;2.20;;;;;;;17.66;44.89;102641.72;4984201;28;113927;-63
2022/07/17 00:11:10;;;;;;;4.75;1.90;;;;;;;17.62;45.10;102634.75;4987709;28;123788;-64
2022/07/17 00:13:37;;;;;;;5.38;1.75;;;;;;;17.58;45.03;102627.81;4988453;28;124001;-64
2022/07/17 00:16:06;;;;;;;5.30;2.22;;;;;;;17.54;45.16;102636.94;4988518;28;115214;-63
2022/07/17 00:18:33;;;;;;;5.32;1.98;;;;;;;17.50;45.39;102629.97;4966436;28;115340;-63
2022/07/17 00:21:00;;;;;;;4.55;2.17;;;;;;;17.44;45.31;102635.59;4988068;28;123996;-63
2022/07/17 00:23:27;;;;;;;3.72;1.50;;;;;;;17.39;45.41;102638.50;4987746;28;124025;-64
2022/07/17 00:25:54;;;;;;;3.80;2.17;;;;;;;17.34;45.67;102634.28;4985652;28;114139;-63
2022/07/17 00:28:22;;;;;;;4.47;1.80;;;;;;;17.27;45.92;102629.22;4987308;28;114132;-63
2022/07/17 00:30:49;;;;;;;3.80;1.83;;;;;;;17.24;45.77;102626.66;4990888;28;124701;-63
2022/07/17 00:33:16;;;;;;;3.95;1.80;;;;;;;17.21;45.94;102623.25;4989802;28;124203;-63
2022/07/17 00:35:43;;;;;;;4.47;2.08;;;;;;;17.18;46.14;102636.75;4973418;28;113864;-63
2022/07/17 00:38:10;;;;;;;3.45;1.80;;;;;;;17.15;46.13;102629.75;4967136;28;113905;-63
2022/07/17 00:40:37;;;;;;;6.38;1.70;;;;;;;17.14;46.17;102633.38;4989653;28;123862;-63
2022/07/17 00:43:05;;;;;;;5.20;2.00;;;;;;;17.12;46.19;102624.50;4972577;28;122995;-63
2022/07/17 00:45:32;;;;;;;6.15;1.80;;;;;;;17.09;46.25;102625.53;4987602;28;114598;-63
2022/07/17 00:48:02;;;;;;;6.95;1.85;;;;;;;17.06;46.19;102622.09;4983040;28;113991;-63
2022/07/17 00:50:34;;;;;;;4.45;1.70;;;;;;;17.03;46.33;102625.81;4989332;28;124178;-63
2022/07/17 00:53:02;;;;;;;6.00;1.90;;;;;;;17.01;46.38;102626.78;4987331;28;124021;-63
2022/07/17 00:55:30;;;;;;;5.05;1.88;;;;;;;16.99;46.47;102628.66;4987650;28;114251;-63
2022/07/17 00:58:17;;;;;;;4.75;1.67;;;;;;;16.94;46.49;102626.19;4988799;28;114116;-63
2022/07/17 01:00:45;;;;;;;5.25;1.90;;;;;;;16.91;46.39;102627.22;4986932;28;124164;-62
2022/07/17 01:03:14;;;;;;;4.68;1.90;;;;;;;16.88;46.59;102632.69;4984473;28;123713;-63
2022/07/17 01:05:45;;;;;;;5.20;1.85;;;;;;;16.86;46.56;102625.69;4984671;28;115370;-63
2022/07/17 01:08:12;;;;;;;5.85;2.00;;;;;;;16.84;46.49;102628.41;4984961;28;114926;-62
2022/07/17 01:10:40;;;;;;;4.75;1.70;;;;;;;16.80;46.66;102621.41;4989951;28;124032;-63
2022/07/17 01:13:08;;;;;;;4.70;1.92;;;;;;;16.76;46.49;102619.78;4958743;28;123223;-63
2022/07/17 01:15:37;;;;;;;3.38;1.80;;;;;;;16.73;46.86;102615.44;4985406;28;114360;-63
2022/07/17 01:18:07;;;;;;;4.20;1.65;;;;;;;16.72;46.65;102620.84;4985160;28;113963;-64
2022/07/17 01:20:36;;;;;;;4.75;1.58;;;;;;;16.68;46.79;102613.91;4990259;28;124193;-64
2022/07/17 01:23:04;;;;;;;4.22;1.73;;;;;;;16.65;46.77;102619.38;4987343;28;123592;-64
2022/07/17 01:25:31;;;;;;;4.65;1.85;;;;;;;16.61;46.78;102607.94;4987618;28;114156;-64
2022/07/17 01:27:59;;;;;;;5.88;1.80;;;;;;;16.59;46.89;102614.28;4986314;28;114045;-64
2022/07/17 01:30:27;;;;;;;3.80;1.70;;;;;;;16.55;46.80;102614.41;4970810;28;123004;-64
2022/07/17 01:32:55;;;;;;;4.43;2.00;;;;;;;16.53;46.76;102615.41;4988056;28;124042;-63
2022/07/17 01:35:23;;;;;;;2.97;1.80;;;;;;;16.49;47.05;102614.66;4987461;28;114683;-63
2022/07/17 01:37:50;;;;;;;4.95;2.10;;;;;;;16.47;47.12;102621.03;4987829;28;114324;-63
2022/07/17 01:40:18;;;;;;;4.13;1.90;;;;;;;16.45;47.14;102618.41;4989031;28;124620;-63
2022/07/17 01:42:48;;;;;;;5.15;2.33;;;;;;;16.41;47.37;102622.16;4989644;28;123586;-63
2022/07/17 01:45:17;;;;;;;4.93;2.22;;;;;;;16.38;47.38;102626.75;4987509;28;114793;-63
2022/07/17 01:47:46;;;;;;;4.50;2.22;;;;;;;16.33;47.51;102624.25;4984406;28;114465;-63
2022/07/17 01:50:14;;;;;;;7.93;2.25;;;;;;;16.27;47.60;102627.19;4963259;28;123598;-63
2022/07/17 01:52:43;;;;;;;6.63;1.98;;;;;;;16.23;47.71;102625.56;4971303;28;123844;-63
2022/07/17 01:55:14;;;;;;;4.00;1.95;;;;;;;16.19;47.94;102629.31;4986428;28;115577;-63
2022/07/17 01:57:42;;;;;;;6.05;2.03;;;;;;;16.13;47.90;102623.25;4987920;28;114762;-63
2022/07/17 02:00:14;;;;;;;5.30;1.90;;;;;;;16.09;48.01;102613.63;4992129;28;124075;-63
2022/07/17 02:02:42;;;;;;;5.25;1.92;;;;;;;16.06;47.82;102611.06;4970811;28;123797;-63
2022/07/17 02:05:09;;;;;;;7.28;2.08;;;;;;;16.03;47.77;102623.69;4991956;28;114127;-63
2022/07/17 02:07:39;;;;;;;4.90;1.95;;;;;;;15.99;48.05;102614.91;4991214;28;113784;-63
2022/07/17 02:10:10;;;;;;;7.07;2.10;;;;;;;15.95;48.30;102614.19;4960004;28;123887;-63
2022/07/17 02:12:37;;;;;;;6.28;2.05;;;;;;;15.91;48.06;102606.34;4990132;28;123848;-63
2022/07/17 02:15:06;;;;;;;6.03;2.20;;;;;;;15.87;48.08;102616.28;4990412;28;114395;-63
2022/07/17 02:17:38;;;;;;;5.65;2.20;;;;;;;15.82;48.15;102620.06;4987778;28;114142;-63
2022/07/17 02:20:07;;;;;;;4.30;1.98;;;;;;;15.74;48.19;102623.88;4990010;28;123942;-63
2022/07/17 02:22:36;;;;;;;7.40;2.03;;;;;;;15.71;48.39;102626.66;4971904;28;125510;-63
2022/07/17 02:25:06;;;;;;;5.18;2.22;;;;;;;15.67;48.33;102629.47;4988568;28;114342;-63
2022/07/17 02:27:33;;;;;;;4.13;2.10;;;;;;;15.62;48.55;102621.66;4991174;28;114072;-63
2022/07/17 02:30:08;;;;;;;6.90;1.90;;;;;;;15.60;48.93;102620.00;4973844;28;122849;-63
2022/07/17 02:32:35;;;;;;;4.43;2.15;;;;;;;15.59;48.87;102621.75;4986567;28;123636;-64
2022/07/17 02:35:03;;;;;;;2.70;1.95;;;;;;;15.57;48.74;102613.81;4987919;28;114782;-64
2022/07/17 02:37:30;;;;;;;3.92;2.03;;;;;;;15.56;48.87;102616.56;4986895;28;113710;-65
2022/07/17 02:39:58;;;;;;;3.28;2.00;;;;;;;15.54;48.78;102608.59;4966438;28;124813;-64
2022/07/17 02:42:27;;;;;;;4.43;1.80;;;;;;;15.52;48.96;102620.25;4985680;28;123751;-64
2022/07/17 02:44:55;;;;;;;2.72;1.80;;;;;;;15.52;48.83;102612.22;4989535;28;115965;-64
2022/07/17 02:47:33;;;;;;;6.03;2.13;;;;;;;15.51;48.91;102622.06;4974384;28;113721;-64
2022/07/17 02:50:03;;;;;;;4.93;2.05;;;;;;;15.51;49.06;102618.53;4958310;28;123999;-64
2022/07/17 02:52:30;;;;;;;4.03;1.92;;;;;;;15.52;49.08;102614.91;4989652;28;123907;-64
2022/07/17 02:54:57;;;;;;;4.80;2.20;;;;;;;15.51;49.15;102619.38;4989621;28;114349;-64
2022/07/17 02:57:25;;;;;;;4.60;2.00;;;;;;;15.50;49.08;102616.75;4988144;28;114673;-64
2022/07/17 02:59:52;;;;;;;7.18;1.90;;;;;;;15.47;48.92;102619.56;4991276;28;123946;-64
2022/07/17 03:02:19;;;;;;;3.70;1.90;;;;;;;15.46;48.94;102629.34;4992252;28;125441;-64
2022/07/17 03:04:46;;;;;;;3.03;1.70;;;;;;;15.44;48.97;102617.88;4987285;28;114592;-64
2022/07/17 03:07:13;;;;;;;5.13;1.95;;;;;;;15.43;48.92;102632.16;4989174;28;113827;-64
2022/07/17 03:09:40;;;;;;;5.38;2.30;;;;;;;15.41;49.11;102627.78;4988412;28;124126;-64
2022/07/17 03:12:08;;;;;;;5.35;2.40;;;;;;;15.40;49.19;102634.06;4989209;28;124030;-65
2022/07/17 03:14:35;;;;;;;5.88;1.95;;;;;;;15.37;49.47;102632.41;4989126;28;114343;-65
2022/07/17 03:17:02;;;;;;;3.83;2.17;;;;;;;15.33;49.23;102631.63;4963928;28;112806;-65
2022/07/17 03:19:30;;;;;;;3.55;2.00;;;;;;;15.29;49.18;102635.31;4983450;28;125487;-65
2022/07/17 03:21:57;;;;;;;4.10;1.90;;;;;;;15.27;49.30;102631.84;4960413;28;123810;-64
2022/07/17 03:24:24;;;;;;;3.17;1.90;;;;;;;15.26;49.44;102634.59;4989346;28;113455;-64
2022/07/17 03:26:51;;;;;;;4.68;2.25;;;;;;;15.23;49.39;102630.22;4989191;28;113687;-64
2022/07/17 03:29:19;;;;;;;3.03;2.00;;;;;;;15.20;49.62;102627.66;4990377;28;123971;-64
2022/07/17 03:31:47;;;;;;;5.50;2.10;;;;;;;15.19;49.60;102631.25;4987767;28;124677;-65
2022/07/17 03:34:14;;;;;;;4.57;2.10;;;;;;;15.17;49.62;102633.09;4988758;28;115919;-64
2022/07/17 03:36:42;;;;;;;5.45;2.20;;;;;;;15.14;49.87;102642.09;4989785;28;115570;-65
2022/07/17 03:39:09;;;;;;;5.45;2.00;;;;;;;15.11;49.80;102636.00;4984610;28;123846;-64
2022/07/17 03:41:36;;;;;;;3.75;1.75;;;;;;;15.08;49.69;102636.09;4990373;28;123870;-64
2022/07/17 03:44:04;;;;;;;3.22;2.05;;;;;;;15.06;49.78;102637.94;4988148;28;114755;-64
2022/07/17 03:46:31;;;;;;;5.95;2.35;;;;;;;15.03;49.81;102638.03;4985477;28;115067;-64
2022/07/17 03:48:58;;;;;;;4.95;1.90;;;;;;;15.01;49.98;102634.56;4988155;28;123907;-64
2022/07/17 03:51:25;;;;;;;4.05;2.20;;;;;;;14.98;50.00;102635.56;4988755;28;124262;-65
2022/07/17 03:53:53;;;;;;;2.90;1.95;;;;;;;14.96;50.17;102627.59;4991225;28;114529;-63
2022/07/17 03:56:20;;;;;;;5.38;2.30;;;;;;;14.94;50.05;102618.78;4985713;28;114312;-63
2022/07/17 03:58:47;;;;;;;4.63;1.95;;;;;;;14.92;50.38;102609.97;4987260;28;124770;-63
2022/07/17 04:01:15;;;;;;;5.82;2.08;;;;;;;14.93;50.24;102622.34;4987688;28;124348;-63
2022/07/17 04:03:42;;;;;;;5.00;2.17;;;;;;;14.92;50.43;102623.28;4986298;28;114332;-63
2022/07/17 04:06:09;;;;;;;3.35;2.00;;;;;;;14.92;50.71;102641.97;4970993;28;113772;-63
2022/07/17 04:08:36;;;;;;;4.00;1.90;;;;;;;14.91;50.62;102626.88;4984723;28;123038;-63
2022/07/17 04:11:04;;;;;;;4.13;2.20;;;;;;;14.92;50.78;102641.09;4954097;28;123085;-64
2022/07/17 04:13:37;;;;;;;5.03;2.10;;;;;;;14.92;50.85;102641.97;4977087;28;113616;-64
2022/07/17 04:16:04;;;;;;;2.97;1.95;;;;;;;14.93;50.82;102638.34;4986364;28;114458;-64
2022/07/17 04:18:34;;;;;;;4.75;2.13;;;;;;;14.94;50.92;102639.25;4986629;28;124215;-63
2022/07/17 04:21:06;;;;;;;6.47;2.47;;;;;;;14.95;50.99;102657.00;4989928;28;123802;-64
2022/07/17 04:23:34;;;;;;;5.80;2.70;;;;;;;14.96;51.08;102658.75;4986312;28;115360;-64
2022/07/17 04:26:03;;;;;;;5.80;2.30;;;;;;;14.96;51.05;102659.59;4988240;28;114853;-64
2022/07/17 04:28:39;;;;;;;6.38;2.33;;;;;;;14.96;51.18;102662.28;4986878;28;124209;-64
2022/07/17 04:31:06;;;;;;;4.22;2.20;;;;;;;14.96;51.09;102659.59;4985753;28;124135;-64
2022/07/17 04:33:34;;;;;;;5.15;2.38;;;;;;;14.96;51.33;102642.75;4988479;28;114173;-64
2022/07/17 04:36:01;;;;;;;4.25;2.05;;;;;;;14.99;51.48;102654.19;4988274;28;113697;-63
2022/07/17 04:38:29;;;;;;;5.38;2.58;;;;;;;15.01;51.82;102666.59;4984492;28;123888;-64
2022/07/17 04:40:57;;;;;;;5.80;2.60;;;;;;;15.05;51.72;102657.53;4988229;28;124233;-64
2022/07/17 04:43:24;;;;;;;7.13;2.60;;;;;;;15.07;51.79;102645.91;4987810;28;114090;-63
2022/07/17 04:45:51;;;;;;;4.82;2.47;;;;;;;15.11;51.67;102657.34;4990112;28;114552;-64
2022/07/17 04:48:18;;;;;;;5.72;2.80;;;;;;;15.14;51.87;102657.22;4984110;28;124684;-64
2022/07/17 04:50:45;;;;;;;5.03;2.70;;;;;;;15.19;51.78;102656.13;4986014;28;123588;-64
2022/07/17 04:53:12;;;;;;;4.95;2.50;;;;;;;15.26;51.91;102656.81;4985614;28;114916;-64
2022/07/17 04:55:40;;;;;;;8.70;2.80;;;;;;;15.36;52.41;102668.88;4987861;28;114068;-64
2022/07/17 04:58:07;;;;;;;6.00;2.70;;;;;;;15.49;52.55;102663.09;4988257;28;124114;-64
2022/07/17 05:00:34;;;;;;;5.50;2.70;;;;;;;15.63;52.66;102670.59;4972174;28;123155;-64
2022/07/17 05:03:02;;;;;;;4.53;2.60;;;;;;;15.76;52.64;102667.47;4990263;28;114984;-64
2022/07/17 05:05:29;;;;;;;4.63;2.30;;;;;;;15.90;52.53;102666.06;4984909;28;113873;-64
2022/07/17 05:07:56;;;;;;;5.25;2.35;;;;;;;16.02;52.44;102670.94;4987563;28;124806;-64
2022/07/17 05:10:23;;;;;;;5.00;2.90;;;;;;;16.11;52.46;102677.72;4960242;28;122994;-64
2022/07/17 05:12:54;;;;;;;6.07;2.60;;;;;;;16.19;52.31;102675.63;4971764;28;114491;-64
2022/07/17 05:15:21;;;;;;;6.55;2.63;;;;;;;16.27;52.27;102667.28;4959252;28;114322;-64
2022/07/17 05:17:48;;;;;;;5.45;3.10;;;;;;;16.35;52.29;102671.41;4974508;28;124797;-64
2022/07/17 05:20:16;;;;;;;6.20;2.90;;;;;;;16.41;52.20;102670.28;4988937;28;124930;-64
2022/07/17 05:22:43;;;;;;;5.85;2.60;;;;;;;16.48;52.27;102666.44;4970754;28;113562;-64
2022/07/17 05:25:10;;;;;;;4.32;2.60;;;;;;;16.55;52.19;102662.56;4972496;28;112996;-64
2022/07/17 05:27:37;;;;;;;5.72;2.70;;;;;;;16.60;52.10;102661.53;4970743;28;123644;-64
2022/07/17 05:30:05;;;;;;;3.17;2.30;;;;;;;16.66;52.29;102674.63;4989368;28;124069;-65
2022/07/17 05:32:32;;;;;;;5.93;2.50;;;;;;;16.71;52.15;102672.66;4988854;28;114750;-65
2022/07/17 05:34:59;;;;;;;8.10;2.97;;;;;;;16.79;52.33;102675.00;4989370;28;114763;-65
2022/07/17 05:37:26;;;;;;;6.45;2.80;;;;;;;16.86;52.10;102672.03;4989310;28;124412;-64
2022/07/17 05:39:53;;;;;;;5.40;2.40;;;;;;;16.93;52.18;102668.16;4990612;28;124867;-65
2022/07/17 05:42:20;;;;;;;6.32;2.53;;;;;;;17.00;52.05;102657.19;4965104;28;113599;-65
2022/07/17 05:44:49;;;;;;;6.78;2.75;;;;;;;17.07;52.33;102642.59;4990079;28;113435;-65
2022/07/17 05:47:16;;;;;;;7.05;2.70;;;;;;;17.14;52.28;102644.09;4989284;28;124415;-65
2022/07/17 05:49:43;;;;;;;7.55;2.78;;;;;;;17.21;52.28;102645.53;4973918;28;123121;-66
2022/07/17 05:52:10;;;;;;;9.10;2.90;;;;;;;17.29;52.46;102638.03;4975642;28;113557;-65
2022/07/17 05:54:37;;;;;;;7.22;3.03;;;;;;;17.37;52.39;102652.91;4991162;28;113964;-65
2022/07/17 05:57:05;;;;;;;6.82;3.10;;;;;;;17.46;52.32;102657.81;4974321;28;124106;-64
2022/07/17 05:59:37;;;;;;;8.13;3.30;;;;;;;17.57;52.16;102657.34;4991272;28;123733;-65
2022/07/17 06:02:04;;;;;;;7.15;2.97;;;;;;;17.66;52.15;102657.78;4991474;28;115467;-65
2022/07/17 06:04:32;;;;;;;5.97;2.90;;;;;;;17.78;51.98;102653.69;4978058;28;113789;-65
2022/07/17 06:06:59;;;;;;;4.70;2.90;;;;;;;17.88;51.85;102656.84;4975146;28;123112;-65
2022/07/17 06:09:27;;;;;;;5.55;2.67;;;;;;;17.99;51.87;102654.53;4991536;28;125277;-65
2022/07/17 06:11:54;;;;;;;7.45;2.70;;;;;;;18.11;51.83;102652.19;4973381;28;114123;-65
2022/07/17 06:14:21;;;;;;;7.82;2.40;;;;;;;18.23;51.78;102667.69;4976486;28;113336;-65
2022/07/17 06:16:49;;;;;;;7.55;2.67;;;;;;;18.35;51.60;102656.38;4974629;28;123333;-65
2022/07/17 06:19:17;;;;;;;3.45;1.92;;;;;;;18.47;51.20;102669.16;4974753;28;122850;-65
2022/07/17 06:21:45;;;;;;;5.15;2.20;;;;;;;18.59;50.84;102653.41;4992396;28;114338;-66
2022/07/17 06:24:12;;;;;;;7.10;1.83;;;;;;;18.69;50.70;102643.97;4985642;28;114053;-65
2022/07/17 06:26:39;;;;;;;6.68;1.90;;;;;;;18.81;50.52;102637.13;4990265;28;124048;-65
2022/07/17 06:29:06;;;;;;;3.97;2.10;;;;;;;18.94;50.47;102642.72;4973664;28;122671;-66
2022/07/17 06:31:34;;;;;;;6.72;1.80;;;;;;;19.07;49.97;102646.53;4977306;28;114005;-65
2022/07/17 06:34:01;;;;;;;6.22;1.90;;;;;;;19.18;49.81;102645.97;4958868;28;112747;-65
2022/07/17 06:36:28;;;;;;;3.85;1.70;;;;;;;19.31;49.64;102656.91;4960787;28;124387;-65
2022/07/17 06:38:55;;;;;;;6.15;1.80;;;;;;;19.41;49.41;102658.16;4991709;28;123903;-65
2022/07/17 06:41:22;;;;;;;5.32;1.95;;;;;;;19.51;49.25;102659.41;4989568;28;114897;-65
2022/07/17 06:43:50;;;;;;;7.53;1.95;;;;;;;19.61;49.14;102668.72;4990111;28;114273;-65
2022/07/17 06:46:17;;;;;;;4.53;1.83;;;;;;;19.73;48.95;102666.34;4991526;28;124795;-65
2022/07/17 06:48:45;;;;;;;4.10;1.50;;;;;;;19.87;48.75;102650.31;4988934;28;124090;-65
2022/07/17 06:51:12;;;;;;;4.22;1.50;;;;;;;20.00;48.53;102651.38;4987727;28;115520;-65
2022/07/17 06:53:39;;;;;;;2.97;1.50;;;;;;;20.15;48.31;102654.13;4974095;28;114039;-65
2022/07/17 06:56:06;;;;;;;3.70;1.52;;;;;;;20.27;48.54;102658.84;4989190;28;124100;-65
2022/07/17 06:58:34;;;;;;;4.82;1.52;;;;;;;20.41;48.06;102666.97;4990045;28;123686;-65
2022/07/17 07:01:01;;;;;;;3.28;1.40;;;;;;;20.57;47.90;102682.25;4989501;28;114962;-65
2022/07/17 07:03:28;;;;;;;4.47;1.45;;;;;;;20.73;47.58;102685.78;4989203;28;114009;-65
2022/07/17 07:05:55;;;;;;;5.07;1.33;;;;;;;20.92;47.64;102692.78;4988755;28;123869;-65
2022/07/17 07:08:23;;;;;;;3.33;1.35;;;;;;;21.08;46.77;102690.94;4988403;28;123731;-65
2022/07/17 07:10:51;;;;;;;6.03;1.35;;;;;;;21.20;46.54;102695.56;4989062;28;114576;-65
2022/07/17 07:13:18;;;;;;;4.95;1.42;;;;;;;21.36;45.96;102686.53;4955992;28;113777;-65
2022/07/17 07:15:45;;;;;;;3.85;1.50;;;;;;;21.45;45.74;102688.69;4976689;28;124361;-65
2022/07/17 07:18:12;;;;;;;3.95;1.33;;;;;;;21.58;45.78;102696.91;4972776;28;122754;-65
2022/07/17 07:20:39;;;;;;;4.95;1.60;;;;;;;21.74;45.39;102691.41;4991491;28;114350;-65
2022/07/17 07:23:07;;;;;;;4.47;1.50;;;;;;;21.91;45.43;102702.00;4973011;28;113879;-65
2022/07/17 07:25:34;;;;;;;5.18;1.50;;;;;;;22.08;45.00;102698.22;4971686;28;124067;-65
2022/07/17 07:28:03;;;;;;;6.63;1.70;;;;;;;22.25;44.31;102691.75;4988364;28;123688;-65
2022/07/17 07:30:31;;;;;;;5.72;1.30;;;;;;;22.39;44.56;102692.69;4991650;28;114180;-65
2022/07/17 07:32:59;;;;;;;5.60;2.08;;;;;;;22.52;44.22;102699.88;4989600;28;114042;-66
2022/07/17 07:35:26;;;;;;;3.75;1.63;;;;;;;22.68;43.75;102699.72;4989575;28;124635;-65
2022/07/17 07:37:53;;;;;;;5.50;1.70;;;;;;;22.80;43.74;102697.19;4962234;28;123954;-65
2022/07/17 07:40:20;;;;;;;6.55;1.85;;;;;;;22.95;43.48;102696.13;4990884;28;115282;-65
2022/07/17 07:42:47;;;;;;;4.57;1.50;;;;;;;23.06;43.21;102688.19;4972997;28;113721;-65
2022/07/17 07:45:15;;;;;;;4.53;1.60;;;;;;;23.24;42.78;102695.97;4973255;28;124548;-65
2022/07/17 07:47:46;;;;;;;5.00;1.60;;;;;;;23.37;42.20;102683.34;4987719;28;124210;-64
2022/07/17 07:50:14;;;;;;;4.88;1.42;;;;;;;23.51;42.23;102682.38;4990718;28;114450;-65
2022/07/17 07:52:42;;;;;;;6.68;1.45;;;;;;;23.58;41.57;102686.34;4989207;28;113904;-65
2022/07/17 07:55:11;;;;;;;6.13;1.70;;;;;;;23.62;41.04;102681.59;4971874;28;124970;-65
2022/07/17 07:57:48;;;;;;;4.78;1.67;;;;;;;23.68;41.01;102689.28;4990136;28;123857;-65
2022/07/17 08:00:17;;;;;;;5.45;1.40;;;;;;;23.77;41.04;102688.63;4990707;28;114737;-64
2022/07/17 08:02:44;;;;;;;8.15;1.60;;;;;;;23.88;41.01;102691.47;4984811;28;114056;-64
2022/07/17 08:05:11;;;;;;;3.72;2.10;;;;;;;23.99;40.54;102701.50;4988671;28;124645;-64
2022/07/17 08:07:38;;;;;;;5.00;1.60;;;;;;;24.07;40.75;102706.34;4987240;28;124778;-64
2022/07/17 08:10:06;;;;;;;5.28;1.52;;;;;;;24.16;40.66;102700.25;4990136;28;114149;-64
2022/07/17 08:12:33;;;;;;;3.60;1.52;;;;;;;24.28;40.56;102699.38;4988245;28;113897;-64
2022/07/17 08:15:14;;;;;;;3.42;1.35;;;;;;;24.42;40.01;102705.59;4983078;28;124182;-64
2022/07/17 08:17:42;;;;;;;5.50;1.70;;;;;;;24.51;40.08;102696.78;4969341;28;123968;-64
2022/07/17 08:20:10;;;;;;;4.53;1.58;;;;;;;24.61;40.21;102700.56;4972288;28;113165;-64
2022/07/17 08:22:42;;;;;;;5.07;1.52;;;;;;;24.73;40.01;102700.59;4989057;28;113769;-64
2022/07/17 08:25:30;;;;;;;4.40;1.40;;;;;;;24.82;39.69;102689.06;4991211;28;123866;-64
2022/07/17 08:27:57;;;;;;;6.80;1.65;;;;;;;24.90;39.52;102689.31;4988970;28;124023;-64
2022/07/17 08:30:25;;;;;;;3.38;1.50;;;;;;;24.95;39.29;102692.56;4990649;28;115916;-64
2022/07/17 08:32:52;;;;;;;6.80;1.75;;;;;;;25.01;39.17;102702.91;4990124;28;115278;-64
2022/07/17 08:35:20;;;;;;;4.15;1.33;;;;;;;25.06;39.45;102699.88;4991017;28;124577;-64
2022/07/17 08:37:49;;;;;;;4.03;1.80;;;;;;;25.12;39.08;102693.97;4987689;28;124379;-64
2022/07/17 08:40:17;;;;;;;5.32;1.50;;;;;;;25.24;38.74;102697.59;4990607;28;114111;-64
2022/07/17 08:42:44;;;;;;;5.50;1.60;;;;;;;25.30;37.97;102686.28;4989827;28;113807;-64
2022/07/17 08:45:12;;;;;;;3.85;1.50;;;;;;;25.32;38.35;102695.16;4973152;28;123500;-65
2022/07/17 08:47:40;;;;;;;4.68;1.60;;;;;;;25.37;37.76;102698.38;4973460;28;122788;-65
2022/07/17 08:50:11;;;;;;;6.43;1.63;;;;;;;25.40;37.50;102695.41;4990892;28;114082;-65
2022/07/17 08:52:40;;;;;;;4.47;1.58;;;;;;;25.47;37.75;102681.34;4985330;28;113846;-65
2022/07/17 08:55:12;;;;;;;7.15;1.65;;;;;;;25.55;37.91;102679.75;4988254;28;123792;-65
2022/07/17 08:57:42;;;;;;;3.17;1.40;;;;;;;25.65;37.43;102679.88;4987382;28;124560;-65
2022/07/17 09:00:18;;;;;;;4.43;1.60;;;;;;;25.76;37.60;102692.59;4989784;28;115100;-65
2022/07/17 09:03:00;;;;;;;7.20;1.50;;;;;;;25.84;37.45;102695.53;4988454;28;114378;-65
2022/07/17 09:05:33;;;;;;;4.28;1.63;;;;;;;25.90;37.44;102699.63;4988677;28;124476;-64
2022/07/17 09:08:01;;;;;;;4.80;1.40;;;;;;;25.96;37.32;102693.75;4971601;28;122739;-64
2022/07/17 09:10:37;;;;;;;5.03;1.60;;;;;;;26.03;36.49;102694.94;4989905;28;114846;-64
2022/07/17 09:13:22;;;;;;;3.15;1.10;;;;;;;26.06;36.35;102694.69;4972840;28;113336;-64
2022/07/17 09:15:52;;;;;;;4.35;1.35;;;;;;;26.09;36.40;102699.91;4975438;28;124636;-65
2022/07/17 09:18:20;;;;;;;6.80;1.70;;;;;;;26.10;36.13;102690.75;4987052;28;123702;-65
2022/07/17 09:20:50;;;;;;;3.75;1.60;;;;;;;26.12;35.82;102683.31;4975967;28;115051;-65
2022/07/17 09:23:21;;;;;;;4.18;1.52;;;;;;;26.18;36.34;102682.84;4989883;28;114837;-65
2022/07/17 09:25:50;;;;;;;5.53;1.40;;;;;;;26.27;35.98;102691.22;4987325;28;124021;-65
2022/07/17 09:28:20;;;;;;;3.83;1.40;;;;;;;26.34;35.83;102685.13;4987715;28;124465;-65
2022/07/17 09:30:50;;;;;;;4.80;1.40;;;;;;;26.45;36.08;102686.97;4990495;28;114899;-64
2022/07/17 09:33:23;;;;;;;3.35;1.30;;;;;;;26.55;35.61;102677.03;4958974;28;113109;-64
2022/07/17 09:35:53;;;;;;;2.90;1.25;;;;;;;26.65;35.47;102679.00;4990024;28;124080;-65
2022/07/17 09:38:35;;;;;;;6.45;1.50;;;;;;;26.70;35.95;102682.22;4972309;28;122699;-65
2022/07/17 09:41:09;;;;;;;4.72;1.30;;;;;;;26.76;35.99;102682.53;4987486;28;114778;-65
2022/07/17 09:43:52;;;;;;;5.43;1.35;;;;;;;26.88;35.15;102674.31;4992172;28;96804;-65
2022/07/17 09:46:22;;;;;;;3.83;1.25;;;;;;;26.95;34.93;102679.09;4969744;28;123139;-65
2022/07/17 09:48:52;;;;;;;4.65;1.48;;;;;;;26.94;34.41;102685.53;4971526;28;123043;-65
2022/07/17 09:51:21;;;;;;;4.85;1.50;;;;;;;26.95;34.26;102670.09;4973502;28;114600;-64
2022/07/17 09:53:52;;;;;;;6.70;1.65;;;;;;;26.98;34.20;102673.41;4988095;28;114027;-65
2022/07/17 09:56:21;;;;;;;3.65;1.67;;;;;;;27.02;34.12;102667.72;4990252;28;124599;-65
2022/07/17 09:59:12;;;;;;;5.63;1.58;;;;;;;27.03;34.07;102678.47;4975793;28;124002;-65
2022/07/17 10:01:43;;;;;;;2.97;1.30;;;;;;;27.06;33.99;102678.19;4990110;28;113555;-65
2022/07/17 10:04:12;;;;;;;3.67;1.23;;;;;;;27.07;34.29;102679.03;4987988;28;114581;-65
2022/07/17 10:06:39;;;;;;;3.70;1.50;;;;;;;27.07;34.07;102676.31;4971386;28;124078;-65
2022/07/17 10:09:07;;;;;;;4.43;1.40;;;;;;;27.09;33.92;102677.06;4988556;28;123701;-64
2022/07/17 10:11:37;;;;;;;4.00;1.20;;;;;;;27.12;33.03;102682.22;4987598;28;116583;-65
2022/07/17 10:14:15;;;;;;;4.35;1.90;;;;;;;27.10;33.53;102678.78;4974990;28;114852;-65
2022/07/17 10:16:45;;;;;;;5.75;1.40;;;;;;;27.09;33.94;102677.06;4988566;28;123864;-65
2022/07/17 10:19:22;;;;;;;4.28;1.30;;;;;;;27.18;34.44;102674.41;4970166;28;123009;-67
2022/07/17 10:22:01;;;;;;;3.22;1.20;;;;;;;27.30;33.91;102675.22;4987332;28;114315;-65
2022/07/17 10:24:29;;;;;;;6.50;1.73;;;;;;;27.41;33.48;102677.00;4971584;28;113866;-65
2022/07/17 10:26:58;;;;;;;3.42;1.27;;;;;;;27.40;32.55;102674.41;4983571;28;123886;-64
2022/07/17 10:29:33;;;;;;;4.63;1.38;;;;;;;27.35;33.44;102672.97;4973150;28;123524;-65
2022/07/17 10:32:09;;;;;;;4.68;1.35;;;;;;;27.36;33.17;102674.66;4990328;28;114208;-64
2022/07/17 10:34:44;;;;;;;2.80;1.40;;;;;;;27.46;33.97;102662.97;4986647;28;114021;-64
2022/07/17 10:37:34;;;;;;;3.45;1.30;;;;;;;27.61;33.26;102677.94;4985848;28;124123;-64
2022/07/17 10:40:07;;;;;;;4.20;1.20;;;;;;;27.72;32.55;102669.66;4990085;28;124076;-65
2022/07/17 10:42:48;;;;;;;5.28;1.42;;;;;;;27.79;32.62;102666.41;4986851;28;114528;-65
2022/07/17 10:45:17;;;;;;;3.95;1.13;;;;;;;27.90;32.75;102672.66;4972510;28;114603;-65
2022/07/17 10:47:45;;;;;;;3.10;1.50;;;;;;;28.00;32.13;102678.13;4986394;28;123930;-65
2022/07/17 10:50:12;;;;;;;5.78;1.50;;;;;;;28.05;32.44;102675.84;4991071;28;123455;-65
2022/07/17 10:52:41;;;;;;;3.45;1.30;;;;;;;28.09;32.04;102674.56;4989397;28;114179;-65
2022/07/17 10:55:20;;;;;;;4.68;1.27;;;;;;;28.14;31.42;102671.41;4959415;28;114256;-65
2022/07/17 10:57:48;;;;;;;4.60;1.30;;;;;;;28.14;31.35;102671.41;4986803;28;124831;-65
2022/07/17 11:00:16;;;;;;;2.42;1.10;;;;;;;28.20;31.81;102672.69;4991517;28;124191;-65
2022/07/17 11:02:44;;;;;;;5.15;1.40;;;;;;;28.26;31.37;102661.25;4991588;28;115809;-65
2022/07/17 11:05:13;;;;;;;5.28;1.25;;;;;;;28.28;30.19;102664.69;4973964;28;114844;-65
2022/07/17 11:08:01;;;;;;;5.85;1.40;;;;;;;28.24;30.47;102657.81;4988953;28;124460;-65
2022/07/17 11:10:28;;;;;;;3.58;1.17;;;;;;;28.21;31.57;102663.53;4988751;28;123841;-65
2022/07/17 11:13:08;;;;;;;4.13;1.40;;;;;;;28.25;30.64;102659.53;4973309;28;114850;-65
2022/07/17 11:15:45;;;;;;;4.05;1.45;;;;;;;28.28;30.32;102670.16;4971232;28;112979;-65
2022/07/17 11:18:18;;;;;;;4.95;1.25;;;;;;;28.29;30.31;102667.28;4971293;28;124770;-65
2022/07/17 11:20:50;;;;;;;3.63;1.17;;;;;;;28.29;29.93;102671.84;4991819;28;123778;-65
2022/07/17 11:23:19;;;;;;;4.68;1.20;;;;;;;28.29;30.50;102669.13;4989858;28;114362;-65
2022/07/17 11:26:03;;;;;;;2.38;1.00;;;;;;;28.36;30.55;102673.00;4989895;28;113899;-65